Rechercher aéroport 
image banner adimage banner adimage banner ad
image banner ad

82PA - Frame Fld

Situé à Candor, United States

ICAO - 82PA, IATA -

Données fournies par Airmate  

Information générale

Coordonnées: N40°23'48" W80°18'19"
Élévation : 1210 feet MSL.
Variation magnétique : -07° East
Voir autres Aéroports à Pennsylvania

Données opérationnelles

Special qualification required
Heure actuelle UTC:
Heure actuelle locale:
Météo à : KPIT - Pittsburgh Intl ( 12 km )
METAR: KPIT 150651Z 30006KT 10SM SCT085 SCT230 15/12 A2989 RMK AO2 SLP125 T01500122
TAF: KPIT 150536Z 1506/1612 32006KT P6SM SCT060 FM151600 33010G18KT P6SM SCT040 FM160000 33008KT P6SM SCT150
Voir NOTAMs / SUP AIP / TFR affectant cet aéroport [VIEW]
Fréquences de communication: [VIEW]

Pistes:

Identifiant RWYQFULongueur (ft)Largeur (ft)SurfaceLDA (ft)
121200200GRASS
301200200GRASS

Coordonnées de l'aéroport

Adresse: Candor United States

Vue satellite de 82PA